Jarbo, California
Current Conditions -  °F | °C
As of 6:53 AM on Sunday 23 Nov 2014 (Local Time) from KOVE Reporting Station
Clear Clear  
Wind Chill: 39°   Ceiling: Unl
Heat Index: 42°   Visibility: 10mi
Dew Point: 37°   Wind: 5mph
Humidity: 82%   Direction: 300°WNW
Pressure: 30.31"   Gusts: NA
Location:  39.5324°N, 121.648°W
Report Text: KOVE 231453Z AUTO 30004KT 10SM CLR 06/03 A3031 RMK AO2 SLP267 T00560028 51002
Loading
Personal Weather Stations






























Interactive Weather Map New forecast layout! Learn more

10-Day Weather Forecast

Advertisements
Track Severe Weather on mobile